Flight Track Log - Related Links

Times and Time Zones

All times are in EDT time to prevent confusion due to time zone crossing. See the SWA920 flight status page for this flight to view local times or setup timezone preferences in your user account.

Time Position Orientation Groundspeed Altitude Reporting Facility
EDT Latitude Longitude Course Direction KTS MPH feet Rate Location/Type
Mon 07:56:03 PM 32.8872 -80.0058 58° Northeast 241 277 3,700  Level Jacksonville Center
Mon 07:57:03 PM 32.9619 -79.9908 10° North 258 297 6,300 3,050 Climbing Jacksonville Center
Mon 07:58:03 PM 33.0408 -79.9686 13° North 276 318 9,800 3,025 Climbing Jacksonville Center
Mon 07:59:04 PM 33.1208 -79.9089 32° Northeast 302 348 12,400 3,025 Climbing Jacksonville Center
Mon 08:00:00 PM 33.3408 -79.8963 23° Northeast  Level FlightAware Approximate
Mon 08:00:04 PM 33.2069 -79.8439 32° Northeast 330 380 15,900  Level Jacksonville Center
Mon 08:01:03 PM 33.2972 -79.7764 32° Northeast 355 409 18,600 2,450 Climbing Jacksonville Center
Mon 08:02:04 PM 33.3933 -79.7058 31° Northeast 384 442 20,800 2,331 Climbing Jacksonville Center
Mon 08:03:04 PM 33.4936 -79.6275 33° Northeast 405 466 23,300 2,400 Climbing Jacksonville Center
Mon 08:04:04 PM 33.5961 -79.5514 32° Northeast 425 489 25,600 2,050 Climbing Jacksonville Center
Mon 08:05:04 PM 33.7003 -79.4725 32° Northeast 431 496 27,400 1,650 Climbing Jacksonville Center
Mon 08:06:04 PM 33.8211 -79.3828 32° Northeast 436 502 28,900 1,500 Climbing Jacksonville Center
Mon 08:07:52 PM 34.0311 -79.2228 32° Northeast 483 556 31,600 1,669 Climbing Washington Center
Mon 08:08:53 PM 34.1486 -79.1350 32° Northeast 490 564 33,600 1,686 Climbing Washington Center
Mon 08:09:53 PM 34.2444 -79.0639 32° Northeast 495 570 35,000 1,537 Climbing Washington Center
Mon 08:10:54 PM 34.3875 -78.9567 32° Northeast 495 570 36,700 1,000 Climbing Washington Center
Mon 08:11:53 PM 34.5103 -78.8936 23° Northeast 488 562 37,000 151 Climbing Washington Center
Mon 08:12:53 PM 34.6225 -78.8300 25° Northeast 482 555 37,000  Level Washington Center
Mon 08:13:54 PM 34.7472 -78.7667 23° Northeast 477 549 37,000  Level Washington Center
Mon 08:14:54 PM 34.8719 -78.7058 22° Northeast 477 549 37,000  Level Washington Center
Mon 08:15:55 PM 34.9947 -78.6419 23° Northeast 477 549 37,000  Level Washington Center
Mon 08:16:53 PM 35.1172 -78.5806 22° Northeast 477 549 37,000  Level Washington Center
Mon 08:17:53 PM 35.2356 -78.5164 24° Northeast 477 549 37,000  Level Washington Center
Mon 08:18:54 PM 35.3772 -78.4478 22° Northeast 477 549 37,000  Level Washington Center
Mon 08:19:54 PM 35.4978 -78.3781 25° Northeast 477 549 37,000  Level Washington Center
Mon 08:20:52 PM 35.6222 -78.3183 21° North 482 555 37,000  Level Washington Center
Mon 08:21:53 PM 35.7447 -78.2561 22° Northeast 477 549 37,000  Level Washington Center
Mon 08:22:53 PM 35.8669 -78.1936 23° Northeast 477 549 37,000  Level Washington Center
Mon 08:23:54 PM 35.9853 -78.1333 22° Northeast 477 549 37,000  Level Washington Center
Mon 08:24:55 PM 36.1075 -78.0703 23° Northeast 472 543 37,000 -763 Level Washington Center
Mon 08:25:52 PM 36.2256 -78.0072 23° Northeast 467 537 35,500 -1,846 Descending Washington Center
Mon 08:26:52 PM 36.3458 -77.9411 24° Northeast 462 532 33,400 -2,033 Descending Washington Center
Mon 08:27:53 PM 36.4492 -77.8850 24° Northeast 457 526 31,400 -2,066 Descending Washington Center
Mon 08:28:54 PM 36.5672 -77.8264 22° Northeast 457 526 29,200 -1,388 Descending Washington Center
Mon 08:29:54 PM 36.6789 -77.7647 24° Northeast 445 512 28,600 -756 Descending Washington Center
Mon 08:30:53 PM 36.7883 -77.7083 22° Northeast 435 501 27,700 -807 Descending Washington Center
Mon 08:31:53 PM 36.8956 -77.6539 22° Northeast 419 482 27,000 -347 Descending Washington Center
Mon 08:32:54 PM 37.0028 -77.6178 15° North 408 470 27,000  Level Washington Center
Mon 08:33:52 PM 37.1097 -77.5817 15° North 402 463 27,000  Level Washington Center
Mon 08:34:53 PM 37.2147 -77.5453 15° North 397 457 27,000  Level Washington Center
Mon 08:35:53 PM 37.3217 -77.5089 15° North 397 457 27,000  Level Washington Center
Mon 08:36:52 PM 37.4264 -77.4722 16° North 397 457 27,000 -800 Level Washington Center
Mon 08:37:53 PM 37.5272 -77.4381 15° North 387 445 25,400 -1,736 Descending Washington Center
Mon 08:38:53 PM 37.6256 -77.4036 16° North 374 430 23,500 -1,180 Descending Washington Center
Mon 08:39:55 PM 37.7222 -77.3692 16° North 363 418 23,000 -252 Descending Washington Center
Mon 08:40:52 PM 37.8228 -77.3347 15° North 363 418 23,000  Level Washington Center
Mon 08:41:52 PM 37.9211 -77.3003 15° North 363 418 23,000  Level Washington Center
Mon 08:42:53 PM 38.0219 -77.2631 16° North 363 418 23,000  Level Washington Center
Mon 08:43:54 PM 38.1203 -77.2333 13° North 358 412 23,000 -504 Level Washington Center
Mon 08:44:52 PM 38.2292 -77.1961 15° North 363 418 22,000  Descending Washington Center
Mon 08:45:52 PM 38.3236 -77.1583 17° North 363 418 23,000 -2,350 Climbing Washington Center
Mon 08:46:52 PM 38.4139 -77.0994 27° Northeast 363 418 17,300 -4,017 Descending Washington Center
Mon 08:47:53 PM 38.5044 -77.0322 30° Northeast 363 418 14,900 -1,328 Descending Washington Center
Mon 08:48:54 PM 38.5983 -77.0314 360° North 346 398 14,600 -1,138 Descending Washington Center
Mon 08:49:49 PM 38.6667 -76.9833 29° Northeast 312 359 12,700 -2,139 Descending Potomac TRACON
Mon 08:50:49 PM 38.6833 -76.8833 78° East 307 353 10,500 -1,600 Descending Potomac TRACON
Mon 08:51:49 PM 38.7000 -76.7833 78° East 282 325 9,500 -950 Descending Potomac TRACON
Mon 08:52:49 PM 38.7333 -76.7000 63° Northeast 274 315 8,600 -1,200 Descending Potomac TRACON
Mon 08:53:49 PM 38.7667 -76.6000 67° East 265 305 7,100 -1,250 Descending Potomac TRACON
Mon 08:54:49 PM 38.8000 -76.5333 57° Northeast 246 283 6,100 -574 Descending Potomac TRACON
Mon 08:55:44 PM 38.8500 -76.5167 15° North 239 275 6,000  Descending Potomac TRACON
Mon 08:56:50 PM 38.9000 -76.4333 52° Northeast 225 259 6,100 50 Climbing Potomac TRACON
Mon 08:57:44 PM 38.9167 -76.3833 67° East 225 259 6,100  Level Potomac TRACON
Mon 08:58:44 PM 38.9833 -76.3333 30° Northeast 232 267 6,100  Level Potomac TRACON
Mon 08:59:45 PM 39.0500 -76.3333 360° North 236 272 6,100  Level Potomac TRACON
Mon 09:00:51 PM 39.1167 -76.3333 360° North 242 278 6,100  Level Potomac TRACON
Mon 09:01:45 PM 39.1833 -76.3333 360° North 245 282 6,100  Level Potomac TRACON
Mon 09:02:45 PM 39.2333 -76.4000 314° West 253 291 6,100 -198 Level Potomac TRACON
Mon 09:03:46 PM 39.2833 -76.4500 322° Northwest 254 292 5,700 -595 Descending Potomac TRACON
Mon 09:04:46 PM 39.3333 -76.5167 314° West 244 281 4,900 -895 Descending Potomac TRACON
Mon 09:05:40 PM 39.3667 -76.5833 303° West 244 281 4,000 -474 Descending Potomac TRACON
Mon 09:06:40 PM 39.3833 -76.6667 285° West 241 277 4,000  Level Potomac TRACON
Mon 09:07:46 PM 39.3833 -76.7500 270° West 240 276 4,000  Level Potomac TRACON
Mon 09:08:46 PM 39.3667 -76.8333 256° West 211 243 4,000  Level Potomac TRACON

Login

Don't have an account? Register now (free) for customized features, flight alerts, and more!